createdAt,value
2023-02-24T00:00:34.151Z,12.57
2023-02-24T00:03:41.830Z,11.38
2023-02-24T00:06:44.348Z,12.23
2023-02-24T00:09:49.289Z,12.40
2023-02-24T00:12:53.993Z,13.18
2023-02-24T00:16:02.610Z,12.05
2023-02-24T00:19:07.452Z,13.55
2023-02-24T00:22:10.121Z,13.13
2023-02-24T00:25:14.510Z,12.35
2023-02-24T00:28:17.030Z,11.77
2023-02-24T00:31:20.588Z,12.70
2023-02-24T00:34:23.828Z,13.07
2023-02-24T00:37:26.089Z,13.73
2023-02-24T00:40:30.349Z,13.07
2023-02-24T00:43:37.395Z,12.45
2023-02-24T00:46:47.142Z,14.45
2023-02-24T00:49:50.220Z,12.18
2023-02-24T00:52:52.686Z,14.93
2023-02-24T00:56:02.169Z,15.45
2023-02-24T00:59:05.058Z,14.30
2023-02-24T01:02:08.124Z,14.10
2023-02-24T01:05:12.717Z,14.38
2023-02-24T01:08:21.428Z,13.02
2023-02-24T01:11:46.999Z,13.55
2023-02-24T01:14:51.756Z,13.00
2023-02-24T01:17:54.289Z,15.05
2023-02-24T01:20:58.603Z,12.52
2023-02-24T01:24:01.331Z,13.88
2023-02-24T01:27:04.573Z,12.23
2023-02-24T01:30:13.791Z,13.10
2023-02-24T01:33:16.100Z,14.23
2023-02-24T01:36:22.872Z,10.80
2023-02-24T01:39:25.963Z,13.77
2023-02-24T01:42:28.489Z,14.15
2023-02-24T01:45:30.688Z,12.13
2023-02-24T01:48:33.242Z,13.77
2023-02-24T01:51:42.259Z,12.30
2023-02-24T01:54:58.026Z,12.80
2023-02-24T01:58:04.913Z,11.15
2023-02-24T02:01:09.738Z,12.60
2023-02-24T02:04:18.300Z,12.18
2023-02-24T02:07:23.402Z,13.10
2023-02-24T02:10:28.669Z,12.10
2023-02-24T02:13:35.701Z,12.15
2023-02-24T02:16:54.341Z,11.80
2023-02-24T02:20:06.993Z,12.07
2023-02-24T02:23:30.736Z,12.70
2023-02-24T02:26:58.229Z,11.60
2023-02-24T02:30:17.416Z,13.30
2023-02-24T02:33:54.431Z,11.90
2023-02-24T02:37:41.340Z,12.68
2023-02-24T02:41:02.056Z,11.23
2023-02-24T02:44:13.638Z,11.52
2023-02-24T02:47:44.098Z,10.90
2023-02-24T02:50:54.930Z,11.52
2023-02-24T02:54:12.102Z,10.70
2023-02-24T02:57:20.491Z,10.20
2023-02-24T03:00:29.314Z,10.00
2023-02-24T03:03:50.825Z,12.10
2023-02-24T03:07:00.381Z,10.45
2023-02-24T03:10:10.861Z,9.82
2023-02-24T03:13:16.399Z,12.02
2023-02-24T03:16:23.202Z,9.32
2023-02-24T03:19:39.462Z,11.10
2023-02-24T03:23:16.825Z,11.75
2023-02-24T03:26:30.637Z,10.70
2023-02-24T03:29:50.799Z,9.50
2023-02-24T03:33:11.935Z,10.27
2023-02-24T03:36:15.170Z,10.13
2023-02-24T03:39:17.967Z,10.45
2023-02-24T03:42:23.740Z,11.35
2023-02-24T03:45:27.829Z,10.70
2023-02-24T03:48:30.519Z,12.07
2023-02-24T03:51:33.914Z,9.95
2023-02-24T03:54:47.914Z,10.13
2023-02-24T03:58:12.866Z,10.57
2023-02-24T04:01:29.146Z,11.20
2023-02-24T04:04:47.783Z,9.68
2023-02-24T04:08:04.007Z,10.43
2023-02-24T04:11:15.800Z,10.70
2023-02-24T04:14:28.019Z,12.70
2023-02-24T04:17:37.897Z,11.63
2023-02-24T04:20:42.842Z,10.65
2023-02-24T04:23:46.756Z,10.00
2023-02-24T04:26:50.982Z,10.63
2023-02-24T04:29:57.332Z,11.38
2023-02-24T04:33:00.094Z,10.95
2023-02-24T04:36:03.308Z,11.32
2023-02-24T04:39:07.684Z,10.18
2023-02-24T04:45:16.918Z,9.88
2023-02-24T04:48:20.296Z,10.90
2023-02-24T04:51:22.982Z,11.23
2023-02-24T04:54:25.668Z,12.20
2023-02-24T04:57:27.883Z,11.73
2023-02-24T05:00:36.306Z,11.48
2023-02-24T05:03:42.287Z,10.88
2023-02-24T05:06:45.690Z,11.15
2023-02-24T05:09:48.974Z,10.85
2023-02-24T05:12:51.463Z,11.70
2023-02-24T05:15:56.038Z,11.88
2023-02-24T05:19:17.199Z,11.12
2023-02-24T05:22:19.391Z,10.35
2023-02-24T05:25:22.059Z,11.35
2023-02-24T05:28:25.460Z,12.52
2023-02-24T05:34:32.973Z,11.00
2023-02-24T05:37:42.065Z,12.35
2023-02-24T05:40:46.729Z,11.95
2023-02-24T05:43:55.606Z,12.88
2023-02-24T05:46:59.247Z,13.38
2023-02-24T05:50:03.237Z,12.23
2023-02-24T05:53:05.404Z,11.70
2023-02-24T05:56:11.530Z,13.65
2023-02-24T05:59:18.160Z,12.88
2023-02-24T06:02:27.792Z,12.95
2023-02-24T06:05:30.904Z,13.23
2023-02-24T06:08:42.223Z,12.60
2023-02-24T06:11:48.358Z,13.13
2023-02-24T06:14:50.556Z,14.55
2023-02-24T06:17:56.513Z,13.30
2023-02-24T06:21:03.150Z,16.10
2023-02-24T06:24:05.972Z,13.02
2023-02-24T06:27:10.792Z,13.62
2023-02-24T06:30:15.201Z,10.07
2023-02-24T06:33:17.520Z,14.10
2023-02-24T06:36:21.112Z,12.27
2023-02-24T06:39:23.416Z,11.45
2023-02-24T06:42:26.246Z,11.30
2023-02-24T06:45:28.642Z,13.02
2023-02-24T06:48:31.071Z,13.50
2023-02-24T06:51:33.328Z,13.07
2023-02-24T06:54:36.554Z,13.77
2023-02-24T06:57:38.831Z,13.60
2023-02-24T07:00:42.892Z,13.98
2023-02-24T07:04:05.414Z,12.27
2023-02-24T07:07:07.952Z,13.43
2023-02-24T07:10:10.726Z,12.48
2023-02-24T07:13:13.570Z,12.82
2023-02-24T07:16:18.334Z,12.82
2023-02-24T07:19:23.645Z,15.18
2023-02-24T07:22:25.768Z,14.20
2023-02-24T07:25:34.234Z,13.65
2023-02-24T07:28:39.873Z,14.77
2023-02-24T07:31:42.880Z,15.73
2023-02-24T07:34:45.492Z,16.92
2023-02-24T07:37:48.667Z,13.10
2023-02-24T07:40:51.343Z,13.32
2023-02-24T07:43:55.084Z,14.73
2023-02-24T07:46:59.475Z,14.50
2023-02-24T07:50:10.637Z,13.15
2023-02-24T07:53:12.746Z,14.65
2023-02-24T07:56:17.714Z,14.40
2023-02-24T07:59:22.048Z,14.05
2023-02-24T08:02:24.646Z,12.73
2023-02-24T08:05:27.164Z,14.73
2023-02-24T08:08:29.399Z,13.77
2023-02-24T08:11:35.772Z,13.62
2023-02-24T08:14:44.607Z,16.70
2023-02-24T08:17:47.553Z,16.70
2023-02-24T08:20:52.954Z,13.87
2023-02-24T08:23:55.403Z,17.48
2023-02-24T08:27:06.292Z,15.48
2023-02-24T08:30:23.304Z,15.48
2023-02-24T08:33:30.036Z,17.65
2023-02-24T08:36:32.753Z,16.52
2023-02-24T08:39:36.447Z,15.95
2023-02-24T08:45:44.490Z,15.32
2023-02-24T08:48:55.759Z,15.02
2023-02-24T08:52:02.190Z,14.13
2023-02-24T08:55:10.601Z,16.58
2023-02-24T08:58:18.194Z,17.05
2023-02-24T09:01:27.417Z,15.50
2023-02-24T09:04:29.739Z,14.10
2023-02-24T09:07:35.841Z,15.30
2023-02-24T09:10:39.790Z,15.60
2023-02-24T09:13:54.764Z,17.05
2023-02-24T09:17:11.565Z,14.43
2023-02-24T09:20:35.795Z,17.55
2023-02-24T09:23:45.937Z,14.43
2023-02-24T09:26:48.499Z,14.10
2023-02-24T09:29:50.941Z,14.52
2023-02-24T09:33:01.264Z,14.90
2023-02-24T09:36:20.151Z,15.43
2023-02-24T09:39:22.842Z,15.45
2023-02-24T09:42:28.241Z,14.87
2023-02-24T09:45:33.856Z,15.80
2023-02-24T09:48:43.904Z,14.45
2023-02-24T09:51:53.551Z,16.50
2023-02-24T09:55:28.446Z,15.27
2023-02-24T09:58:42.998Z,15.68
2023-02-24T10:01:48.359Z,15.25
2023-02-24T10:05:28.421Z,17.42
2023-02-24T10:08:38.326Z,16.37
2023-02-24T10:11:53.587Z,14.90
2023-02-24T10:15:19.910Z,14.57
2023-02-24T10:18:28.409Z,16.10
2023-02-24T10:21:49.461Z,15.50
2023-02-24T10:25:10.941Z,15.65
2023-02-24T10:28:25.356Z,16.42
2023-02-24T10:31:35.571Z,14.32
2023-02-24T10:34:38.046Z,16.23
2023-02-24T10:37:40.735Z,15.07
2023-02-24T10:40:56.946Z,15.48
2023-02-24T10:43:59.846Z,16.30
2023-02-24T10:47:14.180Z,15.27
2023-02-24T10:50:24.911Z,15.60
2023-02-24T10:53:42.971Z,16.60
2023-02-24T10:56:55.370Z,17.35
2023-02-24T11:00:17.615Z,16.50
2023-02-24T11:03:40.950Z,13.48
2023-02-24T11:06:55.747Z,14.87
2023-02-24T11:10:11.539Z,15.50
2023-02-24T11:13:35.599Z,16.60
2023-02-24T11:17:15.201Z,15.10
2023-02-24T11:20:47.372Z,15.13
2023-02-24T11:23:55.619Z,14.70
2023-02-24T11:26:58.214Z,15.88
2023-02-24T11:30:16.556Z,16.15
2023-02-24T11:33:41.146Z,15.63
2023-02-24T11:36:54.563Z,17.20
2023-02-24T11:40:06.679Z,16.52
2023-02-24T11:43:09.068Z,15.40
2023-02-24T11:46:20.966Z,15.80
2023-02-24T11:49:35.824Z,15.75
2023-02-24T11:52:43.466Z,16.70
2023-02-24T11:55:51.645Z,17.42
2023-02-24T11:59:38.453Z,16.20
2023-02-24T12:02:47.514Z,17.37
2023-02-24T12:05:56.402Z,16.80
2023-02-24T12:09:27.729Z,16.75
2023-02-24T12:12:44.437Z,17.37
2023-02-24T12:16:28.162Z,17.80
2023-02-24T12:19:40.070Z,17.62
2023-02-24T12:23:06.700Z,17.42
2023-02-24T12:26:21.208Z,18.92
2023-02-24T12:29:45.348Z,18.85
2023-02-24T12:33:05.772Z,15.65
2023-02-24T12:36:45.288Z,16.25
2023-02-24T12:40:02.130Z,15.32
2023-02-24T12:43:37.178Z,16.62
2023-02-24T12:46:42.402Z,18.40
2023-02-24T12:49:56.397Z,16.23
2023-02-24T12:53:14.453Z,16.50
2023-02-24T12:56:38.585Z,16.05
2023-02-24T12:59:42.488Z,16.02
2023-02-24T13:03:18.136Z,15.57
2023-02-24T13:06:55.175Z,15.10
2023-02-24T13:10:23.812Z,13.80
2023-02-24T13:13:30.557Z,13.90
2023-02-24T13:16:35.166Z,14.82
2023-02-24T13:19:41.973Z,14.95
2023-02-24T13:22:44.641Z,17.65
2023-02-24T13:25:52.513Z,17.08
2023-02-24T13:29:11.802Z,16.50
2023-02-24T13:32:35.608Z,17.83
2023-02-24T13:35:37.996Z,16.35
2023-02-24T13:38:47.601Z,18.30
2023-02-24T13:41:49.812Z,14.63
2023-02-24T13:45:05.510Z,13.40
2023-02-24T13:48:20.887Z,15.52
2023-02-24T13:51:42.347Z,15.50
2023-02-24T13:55:05.522Z,13.70
2023-02-24T13:58:26.297Z,13.82
2023-02-24T14:01:31.650Z,14.23
2023-02-24T14:04:36.556Z,14.43
2023-02-24T14:07:40.557Z,14.90
2023-02-24T14:10:45.682Z,14.57
2023-02-24T14:13:54.041Z,15.25
2023-02-24T14:16:56.656Z,13.90
2023-02-24T14:20:16.828Z,13.93
2023-02-24T14:23:28.688Z,13.27
2023-02-24T14:26:44.290Z,13.82
2023-02-24T14:29:46.761Z,15.07
2023-02-24T14:32:49.058Z,14.85
2023-02-24T14:35:51.701Z,15.33
2023-02-24T14:39:09.907Z,14.95
2023-02-24T14:42:14.789Z,15.55
2023-02-24T14:45:26.287Z,13.07
2023-02-24T14:48:31.136Z,14.60
2023-02-24T14:51:35.693Z,13.93
2023-02-24T14:54:47.111Z,13.70
2023-02-24T14:58:11.336Z,14.32
2023-02-24T15:01:40.682Z,13.38
2023-02-24T15:04:44.463Z,13.45
2023-02-24T15:07:47.434Z,12.77
2023-02-24T15:10:56.868Z,13.60
2023-02-24T15:14:06.196Z,14.90
2023-02-24T15:17:14.740Z,14.35
2023-02-24T15:20:39.634Z,12.88
2023-02-24T15:23:41.924Z,15.98
2023-02-24T15:26:53.469Z,15.30
2023-02-24T15:30:27.975Z,15.48
2023-02-24T15:33:43.282Z,14.85
2023-02-24T15:36:45.580Z,14.57
2023-02-24T15:39:49.840Z,15.32
2023-02-24T15:43:07.435Z,14.80
2023-02-24T15:46:19.329Z,15.57
2023-02-24T15:49:21.984Z,14.77
2023-02-24T15:52:27.868Z,15.65
2023-02-24T15:55:30.273Z,17.40
2023-02-24T15:58:34.707Z,17.50
2023-02-24T16:01:36.926Z,16.85
2023-02-24T16:04:39.441Z,16.27
2023-02-24T16:07:44.780Z,15.60
2023-02-24T16:10:50.315Z,17.52
2023-02-24T16:13:56.560Z,17.00
2023-02-24T16:17:01.144Z,17.35
2023-02-24T16:20:08.611Z,15.55
2023-02-24T16:23:11.133Z,16.77
2023-02-24T16:26:23.060Z,17.05
2023-02-24T16:29:25.857Z,17.37
2023-02-24T16:32:28.240Z,17.83
2023-02-24T16:35:30.932Z,17.60
2023-02-24T16:38:33.160Z,16.50
2023-02-24T16:41:35.627Z,18.55
2023-02-24T16:44:37.820Z,16.08
2023-02-24T16:47:41.608Z,16.90
2023-02-24T16:53:46.233Z,19.60
2023-02-24T16:56:49.592Z,19.23
2023-02-24T17:02:54.417Z,19.77
2023-02-24T17:05:57.792Z,21.50
2023-02-24T17:09:00.160Z,21.05
2023-02-24T17:12:02.638Z,21.33
2023-02-24T17:15:05.579Z,20.48
2023-02-24T17:18:08.406Z,20.88
2023-02-24T17:21:14.118Z,20.92
2023-02-24T17:24:19.056Z,19.58
2023-02-24T17:27:21.249Z,21.10
2023-02-24T17:30:26.446Z,21.12
2023-02-24T17:33:28.626Z,21.52
2023-02-24T17:36:31.538Z,20.67
2023-02-24T17:39:33.717Z,21.35
2023-02-24T17:42:36.246Z,19.25
2023-02-24T17:45:44.881Z,21.98
2023-02-24T17:48:47.541Z,20.73
2023-02-24T17:51:49.677Z,21.55
2023-02-24T17:54:52.212Z,20.77
2023-02-24T17:57:57.298Z,21.33
2023-02-24T18:01:02.239Z,21.27
2023-02-24T18:04:04.803Z,21.85
2023-02-24T18:07:08.497Z,19.05
2023-02-24T18:10:12.148Z,20.62
2023-02-24T18:13:14.337Z,18.45
2023-02-24T18:16:17.386Z,19.75
2023-02-24T18:19:19.845Z,18.73
2023-02-24T18:22:23.333Z,18.93
2023-02-24T18:25:25.531Z,18.55
2023-02-24T18:28:28.017Z,15.85
2023-02-24T18:31:30.341Z,16.15
2023-02-24T18:34:32.906Z,16.25
2023-02-24T18:37:35.083Z,16.10
2023-02-24T18:40:38.157Z,13.73
2023-02-24T18:43:40.353Z,14.60
2023-02-24T18:46:42.915Z,11.90
2023-02-24T18:49:45.144Z,11.95
2023-02-24T18:52:47.599Z,12.15
2023-02-24T18:55:50.226Z,11.35
2023-02-24T18:58:58.217Z,13.10
2023-02-24T19:02:00.487Z,10.48
2023-02-24T19:05:03.172Z,12.02
2023-02-24T19:08:05.444Z,10.23
2023-02-24T19:11:13.339Z,11.02
2023-02-24T19:14:16.011Z,11.88
2023-02-24T19:17:20.132Z,10.80
2023-02-24T19:20:22.352Z,11.63
2023-02-24T19:23:25.204Z,10.75
2023-02-24T19:26:28.243Z,11.57
2023-02-24T19:29:30.719Z,12.15
2023-02-24T19:32:33.054Z,9.05
2023-02-24T19:35:39.368Z,10.80
2023-02-24T19:38:42.189Z,11.30
2023-02-24T19:41:46.246Z,11.60
2023-02-24T19:44:50.126Z,9.40
2023-02-24T19:47:52.954Z,11.75
2023-02-24T19:50:55.086Z,10.15
2023-02-24T19:54:00.596Z,11.07
2023-02-24T19:57:03.033Z,11.85
2023-02-24T20:00:07.105Z,12.27
2023-02-24T20:03:14.149Z,11.57
2023-02-24T20:06:25.550Z,10.02
2023-02-24T20:09:27.964Z,9.75
2023-02-24T20:12:30.452Z,11.38
2023-02-24T20:15:33.513Z,11.40
2023-02-24T20:18:36.066Z,10.27
2023-02-24T20:21:39.117Z,10.32
2023-02-24T20:24:41.623Z,11.95
2023-02-24T20:27:44.057Z,10.95
2023-02-24T20:30:47.903Z,11.57
2023-02-24T20:36:53.621Z,9.82
2023-02-24T20:39:55.830Z,10.38
2023-02-24T20:42:58.472Z,12.57
2023-02-24T20:46:10.099Z,10.63
2023-02-24T20:49:14.883Z,9.05
2023-02-24T20:52:17.059Z,11.20
2023-02-24T20:55:19.619Z,10.63
2023-02-24T20:58:21.887Z,10.02
2023-02-24T21:01:24.885Z,10.88
2023-02-24T21:04:27.077Z,11.03
2023-02-24T21:07:31.637Z,8.93
2023-02-24T21:10:33.877Z,8.45
2023-02-24T21:13:39.524Z,9.82
2023-02-24T21:16:41.700Z,12.15
2023-02-24T21:19:44.128Z,9.32
2023-02-24T21:22:46.398Z,9.20
2023-02-24T21:25:53.242Z,9.75
2023-02-24T21:28:57.820Z,11.35
2023-02-24T21:32:00.750Z,9.77
2023-02-24T21:35:03.790Z,10.35
2023-02-24T21:38:06.588Z,9.60
2023-02-24T21:41:14.636Z,8.32
2023-02-24T21:44:17.143Z,13.45
2023-02-24T21:47:20.400Z,10.70
2023-02-24T21:50:23.615Z,9.20
2023-02-24T21:53:27.505Z,9.57
2023-02-24T21:56:30.363Z,9.75
2023-02-24T21:59:32.656Z,11.02
2023-02-24T22:02:35.093Z,11.48
2023-02-24T22:05:37.697Z,10.85
2023-02-24T22:08:43.444Z,11.25
2023-02-24T22:11:47.314Z,11.73
2023-02-24T22:14:49.560Z,9.50
2023-02-24T22:17:52.628Z,13.07
2023-02-24T22:20:54.801Z,10.10
2023-02-24T22:24:01.199Z,10.52
2023-02-24T22:27:03.446Z,9.95
2023-02-24T22:30:07.839Z,11.52
2023-02-24T22:33:09.993Z,12.68
2023-02-24T22:36:25.156Z,11.65
2023-02-24T22:39:27.431Z,11.25
2023-02-24T22:42:29.952Z,11.15
2023-02-24T22:45:32.107Z,12.60
2023-02-24T22:48:37.012Z,11.27
2023-02-24T22:51:39.499Z,11.07
2023-02-24T22:54:42.445Z,10.10
2023-02-24T22:57:44.607Z,14.25
2023-02-24T23:00:47.986Z,13.10
2023-02-24T23:03:51.046Z,11.30
2023-02-24T23:06:55.180Z,11.23
2023-02-24T23:09:59.266Z,11.93
2023-02-24T23:13:02.109Z,13.25
2023-02-24T23:16:07.061Z,12.63
2023-02-24T23:19:16.060Z,10.85
2023-02-24T23:22:19.122Z,13.07
2023-02-24T23:25:23.079Z,13.52
2023-02-24T23:31:28.338Z,11.18
2023-02-24T23:34:30.540Z,11.90
2023-02-24T23:37:33.222Z,12.48
2023-02-24T23:40:49.613Z,12.55
2023-02-24T23:43:53.345Z,12.55
2023-02-24T23:46:58.159Z,13.05
2023-02-24T23:50:00.874Z,11.20
2023-02-24T23:53:04.095Z,12.32
2023-02-24T23:56:15.622Z,12.23
2023-02-24T23:59:17.945Z,12.32
